Time;durP1;ratioP1;P1;durP2;ratioP2;P2;SDS_P1;SDS_P2;PMS_P1;PMS_P2;Temp;Humidity;BMP_temperature;BMP_pressure;BME280_temperature;BME280_humidity;BME280_pressure;Samples;Min_cycle;Max_cycle;Signal;HPM_P1;HPM_P2
2021/12/08 00:00:22;;;;;;;10.32;6.55;;;;;;;;;;4893146;29;20056;-73
2021/12/08 00:02:48;;;;;;;10.45;5.88;;;;;;;;;;4877159;29;20053;-73
2021/12/08 00:05:15;;;;;;;8.73;6.25;;;;;;;;;;4892432;29;20051;-73
2021/12/08 00:07:41;;;;;;;9.68;6.13;;;;;;;;;;4893842;29;20055;-73
2021/12/08 00:10:17;;;;;;;10.05;6.40;;;;;;;;;;4876590;29;20056;-73
2021/12/08 00:13:03;;;;;;;12.82;6.35;;;;;;;;;;4891006;29;20064;-73
2021/12/08 00:15:30;;;;;;;9.70;6.07;;;;;;;;;;4893976;29;20191;-73
2021/12/08 00:17:56;;;;;;;10.20;6.18;;;;;;;;;;4888428;29;20048;-73
2021/12/08 00:20:23;;;;;;;9.63;6.25;;;;;;;;;;4894276;29;20048;-73
2021/12/08 00:22:49;;;;;;;12.55;6.40;;;;;;;;;;4876040;29;20048;-73
2021/12/08 00:25:15;;;;;;;9.10;6.70;;;;;;;;;;4894637;29;20496;-73
2021/12/08 00:27:41;;;;;;;11.35;7.00;;;;;;;;;;4892061;29;20089;-74
2021/12/08 00:30:08;;;;;;;10.23;7.30;;;;;;;;;;4876363;29;20493;-73
2021/12/08 00:32:36;;;;;;;13.70;7.32;;;;;;;;;;4875446;29;20064;-73
2021/12/08 00:35:02;;;;;;;16.42;7.55;;;;;;;;;;4876284;29;20052;-73
2021/12/08 00:37:28;;;;;;;9.80;7.30;;;;;;;;;;4874827;29;20469;-73
2021/12/08 00:39:54;;;;;;;16.13;7.45;;;;;;;;;;4874456;29;20064;-73
2021/12/08 00:42:21;;;;;;;10.65;7.13;;;;;;;;;;4877225;29;20440;-73
2021/12/08 00:44:47;;;;;;;11.85;7.00;;;;;;;;;;4873825;29;20173;-73
2021/12/08 00:47:13;;;;;;;13.55;7.60;;;;;;;;;;4871688;29;20053;-73
2021/12/08 00:49:40;;;;;;;11.27;6.40;;;;;;;;;;4873635;29;20123;-74
2021/12/08 00:52:06;;;;;;;9.52;6.78;;;;;;;;;;4875716;29;20044;-73
2021/12/08 00:54:33;;;;;;;11.07;6.72;;;;;;;;;;4876388;29;20517;-74
2021/12/08 00:56:59;;;;;;;12.35;7.50;;;;;;;;;;4879611;29;20400;-73
2021/12/08 00:59:25;;;;;;;11.50;7.18;;;;;;;;;;4896471;29;20404;-72
2021/12/08 01:01:51;;;;;;;8.80;6.15;;;;;;;;;;4879204;29;20512;-73
2021/12/08 01:04:17;;;;;;;11.55;7.00;;;;;;;;;;4877139;29;20056;-73
2021/12/08 01:06:43;;;;;;;11.27;7.38;;;;;;;;;;4896641;29;20067;-73
2021/12/08 01:09:11;;;;;;;12.02;7.15;;;;;;;;;;4880671;29;20040;-74
2021/12/08 01:11:38;;;;;;;12.57;7.22;;;;;;;;;;4876547;29;20374;-74
2021/12/08 01:14:04;;;;;;;9.50;7.03;;;;;;;;;;4877989;29;20139;-73
2021/12/08 01:16:31;;;;;;;9.55;6.40;;;;;;;;;;4894268;29;20510;-73
2021/12/08 01:18:57;;;;;;;8.15;5.88;;;;;;;;;;4897438;29;20048;-73
2021/12/08 01:21:23;;;;;;;9.85;6.57;;;;;;;;;;4876938;29;20067;-73
2021/12/08 01:23:49;;;;;;;11.35;7.05;;;;;;;;;;4896070;29;20463;-73
2021/12/08 01:26:15;;;;;;;10.80;7.43;;;;;;;;;;4877972;29;20048;-73
2021/12/08 01:28:41;;;;;;;9.57;7.15;;;;;;;;;;4871655;29;20049;-73
2021/12/08 01:31:07;;;;;;;11.68;8.20;;;;;;;;;;4881012;29;20165;-73
2021/12/08 01:33:37;;;;;;;11.85;7.78;;;;;;;;;;4878205;29;20415;-73
2021/12/08 01:36:04;;;;;;;13.70;8.48;;;;;;;;;;4896944;29;20077;-73
2021/12/08 01:38:31;;;;;;;12.57;8.30;;;;;;;;;;4896886;29;20047;-73
2021/12/08 01:40:57;;;;;;;11.48;7.97;;;;;;;;;;4878359;29;20063;-73
2021/12/08 01:43:26;;;;;;;11.18;8.63;;;;;;;;;;4897412;29;20389;-73
2021/12/08 01:45:59;;;;;;;12.57;8.20;;;;;;;;;;4875506;29;20056;-73
2021/12/08 01:48:26;;;;;;;12.10;8.27;;;;;;;;;;4876790;29;20075;-73
2021/12/08 01:50:55;;;;;;;15.10;9.25;;;;;;;;;;4875727;29;20053;-74
2021/12/08 01:53:22;;;;;;;12.10;8.50;;;;;;;;;;4878570;29;20053;-73
2021/12/08 01:55:48;;;;;;;14.05;8.82;;;;;;;;;;4876176;29;20077;-73
2021/12/08 01:58:14;;;;;;;11.40;9.05;;;;;;;;;;4877452;29;20048;-72
2021/12/08 02:00:51;;;;;;;12.38;8.85;;;;;;;;;;4877141;29;20060;-73
2021/12/08 02:03:18;;;;;;;12.60;8.52;;;;;;;;;;4875362;29;20552;-73
2021/12/08 02:05:44;;;;;;;13.40;9.05;;;;;;;;;;4880330;29;20180;-73
2021/12/08 02:08:11;;;;;;;14.65;9.23;;;;;;;;;;4876982;29;20041;-73
2021/12/08 02:10:38;;;;;;;11.43;8.52;;;;;;;;;;4880011;29;20128;-73
2021/12/08 02:13:04;;;;;;;11.35;9.20;;;;;;;;;;4877912;29;20095;-73
2021/12/08 02:15:31;;;;;;;13.45;8.55;;;;;;;;;;4878034;29;20131;-73
2021/12/08 02:17:57;;;;;;;11.48;9.52;;;;;;;;;;4888492;29;20101;-73
2021/12/08 02:20:24;;;;;;;11.57;8.70;;;;;;;;;;4879526;29;20075;-73
2021/12/08 02:22:50;;;;;;;12.38;9.68;;;;;;;;;;4891436;29;20053;-73
2021/12/08 02:25:19;;;;;;;11.95;9.95;;;;;;;;;;4876896;29;20048;-73
2021/12/08 02:27:45;;;;;;;13.30;10.18;;;;;;;;;;4879363;29;20066;-73
2021/12/08 02:30:36;;;;;;;13.77;10.25;;;;;;;;;;4877618;29;20049;-73
2021/12/08 02:46:52;;;;;;;13.77;10.25;;;;;;;;;;4872341;29;20747;-73
2021/12/08 02:49:19;;;;;;;14.60;11.05;;;;;;;;;;4875901;29;20496;-73
2021/12/08 02:51:45;;;;;;;15.93;11.18;;;;;;;;;;4895244;29;20453;-73
2021/12/08 02:54:12;;;;;;;15.55;10.38;;;;;;;;;;4895342;29;20052;-73
2021/12/08 02:56:38;;;;;;;16.23;10.43;;;;;;;;;;4877312;29;20052;-73
2021/12/08 02:59:04;;;;;;;17.85;10.35;;;;;;;;;;4879116;29;20052;-73
2021/12/08 03:01:31;;;;;;;16.40;10.98;;;;;;;;;;4895957;29;20111;-73
2021/12/08 03:03:57;;;;;;;14.48;10.57;;;;;;;;;;4875955;29;20076;-73
2021/12/08 03:06:23;;;;;;;14.70;11.20;;;;;;;;;;4878532;29;20052;-73
2021/12/08 03:08:58;;;;;;;14.57;11.80;;;;;;;;;;4874257;29;20049;-73
2021/12/08 03:11:25;;;;;;;14.15;11.18;;;;;;;;;;4876883;29;20064;-73
2021/12/08 03:14:02;;;;;;;15.05;11.13;;;;;;;;;;4876072;29;20139;-73
2021/12/08 03:16:28;;;;;;;14.52;10.75;;;;;;;;;;4877363;29;20076;-73
2021/12/08 03:18:55;;;;;;;14.43;10.57;;;;;;;;;;4874512;29;20059;-73
2021/12/08 03:21:28;;;;;;;14.65;10.95;;;;;;;;;;4877973;29;20465;-73
2021/12/08 03:24:10;;;;;;;17.65;10.68;;;;;;;;;;4876160;29;20496;-73
2021/12/08 03:26:49;;;;;;;15.23;11.38;;;;;;;;;;4875637;29;20068;-73
2021/12/08 03:29:25;;;;;;;16.17;11.68;;;;;;;;;;4877157;29;20056;-73
2021/12/08 03:31:53;;;;;;;16.15;11.07;;;;;;;;;;4893751;29;20067;-73
2021/12/08 03:34:21;;;;;;;15.65;10.98;;;;;;;;;;4874716;29;20052;-73
2021/12/08 03:36:54;;;;;;;14.07;10.65;;;;;;;;;;4876693;29;20056;-73
2021/12/08 03:39:20;;;;;;;15.38;10.60;;;;;;;;;;4874749;29;20049;-73
2021/12/08 03:41:46;;;;;;;14.65;10.43;;;;;;;;;;4896179;29;20049;-73
2021/12/08 03:44:13;;;;;;;12.48;9.30;;;;;;;;;;4890670;29;20041;-73
2021/12/08 03:46:41;;;;;;;13.13;9.23;;;;;;;;;;4877143;29;20112;-73
2021/12/08 03:49:10;;;;;;;12.88;8.77;;;;;;;;;;4886283;29;20404;-73
2021/12/08 03:51:37;;;;;;;13.10;9.05;;;;;;;;;;4894397;29;20143;-73
2021/12/08 03:54:03;;;;;;;13.13;9.30;;;;;;;;;;4876799;29;20244;-73
2021/12/08 03:56:29;;;;;;;16.02;9.70;;;;;;;;;;4878460;29;20481;-73
2021/12/08 03:58:55;;;;;;;15.85;9.93;;;;;;;;;;4893606;29;20055;-72
2021/12/08 04:01:21;;;;;;;17.48;10.57;;;;;;;;;;4874554;29;20049;-73
2021/12/08 04:03:50;;;;;;;17.30;11.77;;;;;;;;;;4876790;29;20052;-73
2021/12/08 04:09:19;;;;;;;15.20;11.23;;;;;;;;;;4861684;29;20057;-73
2021/12/08 04:11:45;;;;;;;17.67;11.98;;;;;;;;;;4878053;29;20071;-73
2021/12/08 04:14:13;;;;;;;18.67;12.98;;;;;;;;;;4875828;29;20049;-73
2021/12/08 04:16:41;;;;;;;18.45;12.38;;;;;;;;;;4875709;29;20056;-73
2021/12/08 04:19:08;;;;;;;16.63;13.23;;;;;;;;;;4875085;29;20044;-73
2021/12/08 04:21:35;;;;;;;18.33;12.93;;;;;;;;;;4875044;29;20785;-73
2021/12/08 04:24:01;;;;;;;20.48;13.40;;;;;;;;;;4877123;29;20123;-73
2021/12/08 04:26:32;;;;;;;17.55;13.30;;;;;;;;;;4872423;29;20144;-73
2021/12/08 04:28:58;;;;;;;19.15;12.75;;;;;;;;;;4873862;29;20075;-73
2021/12/08 04:31:25;;;;;;;24.27;13.07;;;;;;;;;;4893947;29;20518;-73
2021/12/08 04:33:54;;;;;;;19.02;13.13;;;;;;;;;;4874908;29;20049;-73
2021/12/08 04:36:21;;;;;;;16.83;12.05;;;;;;;;;;4876950;29;20050;-73
2021/12/08 04:38:51;;;;;;;21.08;13.40;;;;;;;;;;4877126;29;20048;-73
2021/12/08 04:41:22;;;;;;;20.17;13.48;;;;;;;;;;4873173;29;20053;-73
2021/12/08 04:44:21;;;;;;;22.77;14.02;;;;;;;;;;4871195;29;20540;-73
2021/12/08 05:03:43;;;;;;;15.60;10.23;;;;;;;;;;4873552;29;20053;-73
2021/12/08 05:08:45;;;;;;;18.08;10.25;;;;;;;;;;4876536;29;20487;-73
2021/12/08 05:11:14;;;;;;;16.15;9.15;;;;;;;;;;4876116;29;20489;-73
2021/12/08 05:13:40;;;;;;;13.88;9.40;;;;;;;;;;4874272;29;20056;-73
2021/12/08 05:16:07;;;;;;;15.90;10.07;;;;;;;;;;4873036;29;20047;-73
2021/12/08 05:18:35;;;;;;;15.60;9.77;;;;;;;;;;4872746;29;20071;-74
2021/12/08 05:21:08;;;;;;;16.65;9.93;;;;;;;;;;4877463;29;20140;-74
2021/12/08 05:23:37;;;;;;;16.95;9.60;;;;;;;;;;4875818;29;20044;-73
2021/12/08 05:26:08;;;;;;;13.70;9.38;;;;;;;;;;4872885;29;20796;-74
2021/12/08 05:28:34;;;;;;;12.50;8.35;;;;;;;;;;4877682;29;20100;-73
2021/12/08 05:31:15;;;;;;;15.63;8.52;;;;;;;;;;4875589;29;20065;-73
2021/12/08 05:33:42;;;;;;;12.30;8.48;;;;;;;;;;4892124;29;20041;-73
2021/12/08 05:36:09;;;;;;;14.73;8.30;;;;;;;;;;4876752;29;20105;-73
2021/12/08 05:38:35;;;;;;;12.68;8.10;;;;;;;;;;4891126;29;20436;-73
2021/12/08 05:41:07;;;;;;;13.27;7.40;;;;;;;;;;4893985;29;20113;-73
2021/12/08 05:43:33;;;;;;;12.70;7.13;;;;;;;;;;4880523;29;20573;-73
2021/12/08 05:45:59;;;;;;;10.85;7.38;;;;;;;;;;4892333;29;20037;-73
2021/12/08 05:48:30;;;;;;;13.60;8.10;;;;;;;;;;4897759;29;20388;-74
2021/12/08 05:51:03;;;;;;;14.15;8.30;;;;;;;;;;4876804;29;20040;-73
2021/12/08 05:53:29;;;;;;;15.60;9.40;;;;;;;;;;4879199;29;20519;-73
2021/12/08 05:55:56;;;;;;;13.77;8.90;;;;;;;;;;4879776;29;20127;-73
2021/12/08 05:58:23;;;;;;;14.07;9.30;;;;;;;;;;4876086;29;20127;-74
2021/12/08 06:00:51;;;;;;;20.52;9.55;;;;;;;;;;4879094;29;20206;-73
2021/12/08 06:03:18;;;;;;;14.07;7.60;;;;;;;;;;4892984;29;20045;-73
2021/12/08 06:05:46;;;;;;;12.15;7.32;;;;;;;;;;4876954;29;20131;-73
2021/12/08 06:08:12;;;;;;;11.27;7.53;;;;;;;;;;4876919;29;20100;-73
2021/12/08 06:10:39;;;;;;;16.48;8.02;;;;;;;;;;4878895;29;20116;-73
2021/12/08 06:13:06;;;;;;;18.00;8.43;;;;;;;;;;4877062;29;20120;-73
2021/12/08 06:15:32;;;;;;;17.05;9.65;;;;;;;;;;4880071;29;20057;-73
2021/12/08 06:17:58;;;;;;;17.45;8.48;;;;;;;;;;4876759;29;20124;-73
2021/12/08 06:20:25;;;;;;;17.05;8.90;;;;;;;;;;4879586;29;20044;-73
2021/12/08 06:22:53;;;;;;;17.98;8.15;;;;;;;;;;4878610;29;20052;-73
2021/12/08 06:25:21;;;;;;;15.07;6.70;;;;;;;;;;4875530;29;20532;-73
2021/12/08 06:27:47;;;;;;;14.75;7.82;;;;;;;;;;4876938;29;20059;-73
2021/12/08 06:30:15;;;;;;;13.93;6.95;;;;;;;;;;4878652;29;20048;-73
2021/12/08 06:32:41;;;;;;;13.20;6.80;;;;;;;;;;4895056;29;20075;-73
2021/12/08 06:35:09;;;;;;;14.32;6.95;;;;;;;;;;4878803;29;20045;-73
2021/12/08 06:37:39;;;;;;;14.48;7.60;;;;;;;;;;4890468;29;20382;-73
2021/12/08 06:40:12;;;;;;;16.75;7.00;;;;;;;;;;4875942;29;20079;-73
2021/12/08 06:42:39;;;;;;;18.55;7.45;;;;;;;;;;4874866;29;20412;-73
2021/12/08 06:45:10;;;;;;;15.20;7.28;;;;;;;;;;4874374;29;20041;-73
2021/12/08 06:47:36;;;;;;;14.32;6.88;;;;;;;;;;4871624;29;20069;-73
2021/12/08 06:50:06;;;;;;;14.55;6.43;;;;;;;;;;4893711;29;20048;-73
2021/12/08 06:52:37;;;;;;;12.85;6.43;;;;;;;;;;4877302;29;20502;-73
2021/12/08 06:55:17;;;;;;;13.77;6.30;;;;;;;;;;4893478;29;20056;-74
2021/12/08 06:57:52;;;;;;;14.00;6.72;;;;;;;;;;4872512;29;20124;-73
2021/12/08 07:00:23;;;;;;;12.90;6.43;;;;;;;;;;4880146;29;20572;-73
2021/12/08 07:03:20;;;;;;;16.33;6.30;;;;;;;;;;4876110;29;20569;-73
2021/12/08 07:08:26;;;;;;;13.10;5.38;;;;;;;;;;4872582;29;20408;-74
2021/12/08 07:10:53;;;;;;;12.55;6.13;;;;;;;;;;4873680;29;20064;-73
2021/12/08 07:13:22;;;;;;;12.77;5.90;;;;;;;;;;4875731;29;20515;-73
2021/12/08 07:15:51;;;;;;;12.85;5.60;;;;;;;;;;4876822;29;20056;-73
2021/12/08 07:18:25;;;;;;;11.30;5.75;;;;;;;;;;4877689;29;20045;-73
2021/12/08 07:20:54;;;;;;;8.90;5.35;;;;;;;;;;4893505;29;20381;-73
2021/12/08 07:23:20;;;;;;;12.35;5.72;;;;;;;;;;4877745;29;20084;-74
2021/12/08 07:25:46;;;;;;;14.25;5.65;;;;;;;;;;4876717;29;20084;-73
2021/12/08 07:28:14;;;;;;;14.88;6.57;;;;;;;;;;4874349;29;20080;-73
2021/12/08 07:30:42;;;;;;;13.95;6.03;;;;;;;;;;4878264;29;20076;-73
2021/12/08 07:33:08;;;;;;;12.93;5.68;;;;;;;;;;4874423;29;20048;-73
2021/12/08 07:35:38;;;;;;;13.20;6.03;;;;;;;;;;4878616;29;20484;-73
2021/12/08 07:38:07;;;;;;;12.52;5.93;;;;;;;;;;4874949;29;20550;-73
2021/12/08 07:40:36;;;;;;;9.75;5.45;;;;;;;;;;4872393;29;20424;-73
2021/12/08 07:43:07;;;;;;;12.85;5.60;;;;;;;;;;4874276;29;20136;-74
2021/12/08 07:45:41;;;;;;;12.02;5.65;;;;;;;;;;4866400;29;20108;-74
2021/12/08 07:48:09;;;;;;;12.55;5.43;;;;;;;;;;4882194;29;20075;-74
2021/12/08 07:50:40;;;;;;;9.82;5.10;;;;;;;;;;4878110;29;20072;-74
2021/12/08 07:53:07;;;;;;;11.68;5.10;;;;;;;;;;4877507;29;20381;-74
2021/12/08 07:55:35;;;;;;;14.93;5.60;;;;;;;;;;4890884;29;22081;-73
2021/12/08 07:58:01;;;;;;;11.38;5.00;;;;;;;;;;4866576;29;20136;-74
2021/12/08 08:00:39;;;;;;;11.65;5.00;;;;;;;;;;4872570;29;20490;-73
2021/12/08 08:03:06;;;;;;;13.05;5.00;;;;;;;;;;4876511;29;20048;-75
2021/12/08 08:05:32;;;;;;;9.48;4.55;;;;;;;;;;4878092;29;20060;-75
2021/12/08 08:08:02;;;;;;;12.20;4.88;;;;;;;;;;4867163;29;20044;-75
2021/12/08 08:10:30;;;;;;;7.80;4.30;;;;;;;;;;4884759;29;20523;-75
2021/12/08 08:13:00;;;;;;;12.93;4.63;;;;;;;;;;4865739;29;20070;-75
2021/12/08 08:15:27;;;;;;;11.73;4.35;;;;;;;;;;4877505;29;20515;-74
2021/12/08 08:17:54;;;;;;;7.25;4.22;;;;;;;;;;4868606;29;20052;-74
2021/12/08 08:20:26;;;;;;;8.85;4.20;;;;;;;;;;4870724;29;20052;-73
2021/12/08 08:22:54;;;;;;;7.50;3.75;;;;;;;;;;4871829;29;20072;-73
2021/12/08 08:25:21;;;;;;;9.18;3.75;;;;;;;;;;4888904;29;20060;-73
2021/12/08 08:27:48;;;;;;;9.50;3.70;;;;;;;;;;4874524;29;20053;-73
2021/12/08 08:30:18;;;;;;;12.18;4.15;;;;;;;;;;4891823;29;20052;-73
2021/12/08 08:32:47;;;;;;;12.35;4.05;;;;;;;;;;4888628;29;20236;-73
2021/12/08 08:35:20;;;;;;;6.43;3.70;;;;;;;;;;4871569;29;20508;-73
2021/12/08 08:37:47;;;;;;;8.05;3.63;;;;;;;;;;4889047;29;20053;-73
2021/12/08 08:40:23;;;;;;;9.98;3.70;;;;;;;;;;4872818;29;20076;-74
2021/12/08 08:42:51;;;;;;;13.55;3.38;;;;;;;;;;4875113;29;20630;-74
2021/12/08 08:45:17;;;;;;;9.57;3.75;;;;;;;;;;4871625;29;20108;-73
2021/12/08 08:47:45;;;;;;;9.70;3.38;;;;;;;;;;4871440;29;20061;-73
2021/12/08 08:50:14;;;;;;;9.07;3.80;;;;;;;;;;4865498;29;20080;-74
2021/12/08 08:52:44;;;;;;;10.05;3.42;;;;;;;;;;4874423;29;20137;-74
2021/12/08 08:55:12;;;;;;;8.75;3.05;;;;;;;;;;4872157;29;20091;-74
2021/12/08 08:57:39;;;;;;;7.25;3.20;;;;;;;;;;4892754;29;20140;-73
2021/12/08 09:00:05;;;;;;;10.73;3.35;;;;;;;;;;4892346;29;20467;-74
2021/12/08 09:02:37;;;;;;;9.13;3.20;;;;;;;;;;4888328;29;20041;-74
2021/12/08 09:05:14;;;;;;;8.80;4.07;;;;;;;;;;4891465;29;20131;-74
2021/12/08 09:07:43;;;;;;;9.60;3.53;;;;;;;;;;4873025;29;20373;-74
2021/12/08 09:10:12;;;;;;;11.70;3.97;;;;;;;;;;4870204;29;20132;-74
2021/12/08 09:12:46;;;;;;;8.80;3.65;;;;;;;;;;4867533;29;20056;-74
2021/12/08 09:15:22;;;;;;;9.77;3.67;;;;;;;;;;4874004;29;20053;-73
2021/12/08 09:18:00;;;;;;;5.50;3.38;;;;;;;;;;4893393;29;20048;-73
2021/12/08 09:20:27;;;;;;;9.32;3.90;;;;;;;;;;4880590;29;20076;-73
2021/12/08 09:22:58;;;;;;;12.10;3.95;;;;;;;;;;4878537;29;20424;-74
2021/12/08 09:25:47;;;;;;;11.63;4.50;;;;;;;;;;4878686;29;20045;-74
2021/12/08 09:28:16;;;;;;;6.90;3.92;;;;;;;;;;4866973;29;20140;-74
2021/12/08 09:30:44;;;;;;;12.63;4.53;;;;;;;;;;4873930;29;20083;-74
2021/12/08 09:33:13;;;;;;;11.52;4.20;;;;;;;;;;4878607;29;20044;-74
2021/12/08 09:35:41;;;;;;;12.50;4.85;;;;;;;;;;4874070;29;20044;-74
2021/12/08 09:38:13;;;;;;;11.50;4.95;;;;;;;;;;4879719;29;20085;-73
2021/12/08 09:40:48;;;;;;;9.30;4.53;;;;;;;;;;4876562;29;20056;-74
2021/12/08 09:43:22;;;;;;;11.60;4.32;;;;;;;;;;4893068;29;20417;-74
2021/12/08 09:45:56;;;;;;;8.40;4.35;;;;;;;;;;4895958;29;20121;-73
2021/12/08 09:48:27;;;;;;;11.85;4.20;;;;;;;;;;4874833;29;20051;-74
2021/12/08 09:50:53;;;;;;;10.95;4.72;;;;;;;;;;4874712;29;20679;-73
2021/12/08 09:53:19;;;;;;;13.35;4.95;;;;;;;;;;4877895;29;20064;-74
2021/12/08 09:55:45;;;;;;;10.82;4.70;;;;;;;;;;4867455;29;20056;-74
2021/12/08 09:58:11;;;;;;;8.65;4.75;;;;;;;;;;4867555;29;20149;-74
2021/12/08 10:00:40;;;;;;;9.70;4.53;;;;;;;;;;4857541;29;20041;-73
2021/12/08 10:03:06;;;;;;;11.73;4.55;;;;;;;;;;4859092;29;20530;-73
2021/12/08 10:05:34;;;;;;;10.80;4.70;;;;;;;;;;4891746;29;20543;-74
2021/12/08 10:08:00;;;;;;;15.63;4.82;;;;;;;;;;4876985;29;20112;-74
2021/12/08 10:10:27;;;;;;;8.23;4.43;;;;;;;;;;4878763;29;20044;-71
2021/12/08 10:12:53;;;;;;;15.35;4.75;;;;;;;;;;4868538;29;20073;-73
2021/12/08 10:15:20;;;;;;;9.82;4.82;;;;;;;;;;4896123;29;20044;-73
2021/12/08 10:17:46;;;;;;;9.80;4.18;;;;;;;;;;4869867;29;20048;-74
2021/12/08 10:20:18;;;;;;;9.57;4.20;;;;;;;;;;4877510;29;20074;-74
2021/12/08 10:22:46;;;;;;;13.25;3.90;;;;;;;;;;4875991;29;20098;-73
2021/12/08 10:25:15;;;;;;;8.73;4.00;;;;;;;;;;4871358;29;20493;-73
2021/12/08 10:28:00;;;;;;;10.23;4.30;;;;;;;;;;4874057;29;20057;-73
2021/12/08 10:30:26;;;;;;;7.65;3.85;;;;;;;;;;4875062;29;20505;-74
2021/12/08 10:32:53;;;;;;;10.95;4.40;;;;;;;;;;4875740;29;20567;-73
2021/12/08 10:35:41;;;;;;;12.35;4.38;;;;;;;;;;4874988;29;20528;-74
2021/12/08 10:38:07;;;;;;;9.98;3.80;;;;;;;;;;4877081;29;20445;-74
2021/12/08 10:40:33;;;;;;;7.57;4.07;;;;;;;;;;4892192;29;20049;-73
2021/12/08 10:43:11;;;;;;;9.52;3.70;;;;;;;;;;4894279;29;20045;-74
2021/12/08 10:45:37;;;;;;;8.00;3.95;;;;;;;;;;4874957;29;20492;-75
2021/12/08 10:48:05;;;;;;;8.95;4.30;;;;;;;;;;4874096;29;20060;-74
2021/12/08 10:56:13;;;;;;;8.80;4.18;;;;;;;;;;4867138;29;20059;-74
2021/12/08 10:58:43;;;;;;;13.20;4.38;;;;;;;;;;4875734;29;20648;-74
2021/12/08 11:01:12;;;;;;;14.07;4.40;;;;;;;;;;4877600;29;20052;-74
2021/12/08 11:03:39;;;;;;;8.38;3.88;;;;;;;;;;4877723;29;20061;-74
2021/12/08 11:06:06;;;;;;;11.90;4.13;;;;;;;;;;4876081;29;20056;-74
2021/12/08 11:08:34;;;;;;;11.05;4.43;;;;;;;;;;4875298;29;20536;-73
2021/12/08 11:11:05;;;;;;;11.80;4.28;;;;;;;;;;4877824;29;20172;-74
2021/12/08 11:13:33;;;;;;;7.53;4.03;;;;;;;;;;4868393;29;20057;-74
2021/12/08 11:16:02;;;;;;;11.90;4.65;;;;;;;;;;4871419;29;20101;-74
2021/12/08 11:18:30;;;;;;;10.73;4.72;;;;;;;;;;4895197;29;20049;-74
2021/12/08 11:21:02;;;;;;;11.30;4.18;;;;;;;;;;4877380;29;20048;-74
2021/12/08 11:23:41;;;;;;;12.48;4.38;;;;;;;;;;4875521;29;20056;-75
2021/12/08 11:26:15;;;;;;;9.63;4.10;;;;;;;;;;4874436;29;20053;-75
2021/12/08 11:28:41;;;;;;;10.07;4.55;;;;;;;;;;4873406;29;20140;-74
2021/12/08 11:31:11;;;;;;;8.07;4.55;;;;;;;;;;4888212;29;20052;-75
2021/12/08 11:33:42;;;;;;;7.15;4.35;;;;;;;;;;4872712;29;20453;-75
2021/12/08 11:36:13;;;;;;;7.03;4.78;;;;;;;;;;4876614;29;20072;-74
2021/12/08 11:38:40;;;;;;;8.85;5.50;;;;;;;;;;4878903;29;20044;-75
2021/12/08 11:41:21;;;;;;;7.82;4.90;;;;;;;;;;4868858;29;20060;-74
2021/12/08 11:43:50;;;;;;;8.77;5.45;;;;;;;;;;4871119;29;20152;-74
2021/12/08 11:46:17;;;;;;;8.27;5.00;;;;;;;;;;4872415;29;20052;-74
2021/12/08 11:48:52;;;;;;;8.68;5.07;;;;;;;;;;4870123;29;20063;-74
2021/12/08 11:51:19;;;;;;;10.13;5.60;;;;;;;;;;4871602;29;20045;-73
2021/12/08 11:53:45;;;;;;;8.13;5.43;;;;;;;;;;4893130;29;20505;-73
2021/12/08 11:56:30;;;;;;;8.60;4.85;;;;;;;;;;4872173;29;20100;-73
2021/12/08 11:58:56;;;;;;;10.27;5.65;;;;;;;;;;4891866;29;20085;-73
2021/12/08 12:01:23;;;;;;;9.60;5.72;;;;;;;;;;4870769;29;20045;-73
2021/12/08 12:03:49;;;;;;;9.23;5.82;;;;;;;;;;4897063;29;20040;-73
2021/12/08 12:06:15;;;;;;;10.77;6.05;;;;;;;;;;4879374;29;20056;-72
2021/12/08 12:08:41;;;;;;;10.88;5.78;;;;;;;;;;4875317;29;20045;-73
2021/12/08 12:11:10;;;;;;;8.55;5.78;;;;;;;;;;4893938;29;20056;-73
2021/12/08 12:13:36;;;;;;;13.23;6.20;;;;;;;;;;4872233;29;20060;-73
2021/12/08 12:16:02;;;;;;;8.80;6.03;;;;;;;;;;4878787;29;20952;-73
2021/12/08 12:18:31;;;;;;;7.47;6.00;;;;;;;;;;4870725;29;20053;-73
2021/12/08 12:21:16;;;;;;;8.57;6.18;;;;;;;;;;4872652;29;20052;-72
2021/12/08 12:24:01;;;;;;;6.93;5.57;;;;;;;;;;4874124;29;20485;-73
2021/12/08 12:26:43;;;;;;;12.10;5.80;;;;;;;;;;4874357;29;20044;-72
2021/12/08 12:29:19;;;;;;;11.73;5.63;;;;;;;;;;4892999;29;20108;-73
2021/12/08 12:32:04;;;;;;;9.98;5.53;;;;;;;;;;4869291;29;20131;-72
2021/12/08 12:34:32;;;;;;;8.15;5.30;;;;;;;;;;4869794;29;20434;-73
2021/12/08 12:36:59;;;;;;;10.35;5.97;;;;;;;;;;4877684;29;20064;-73
2021/12/08 12:39:27;;;;;;;10.60;5.93;;;;;;;;;;4876970;29;20525;-73
2021/12/08 12:42:00;;;;;;;6.53;5.25;;;;;;;;;;4877354;29;20059;-72
2021/12/08 12:44:26;;;;;;;;;;;;;;;;;;4874309;29;20055;-73
2021/12/08 12:47:09;;;;;;;6.63;4.97;;;9.70;99.90;;;;;;4867666;29;19923;-73
2021/12/08 12:49:35;;;;;;;7.25;5.10;;;;;;;;;;4873720;29;20060;-73
2021/12/08 12:52:04;;;;;;;5.32;4.53;;;;;;;;;;4875037;29;20397;-72
2021/12/08 12:54:30;;;;;;;7.35;4.60;;;;;;;;;;4870983;29;20131;-72
2021/12/08 12:56:57;;;;;;;8.05;4.65;;;;;;;;;;4893261;29;20609;-73
2021/12/08 12:59:27;;;;;;;8.30;4.45;;;;;;;;;;4868268;29;20056;-73
2021/12/08 13:02:13;;;;;;;6.95;4.43;;;12.70;99.90;;;;;;4871175;29;20053;-73
2021/12/08 13:04:53;;;;;;;5.82;3.90;;;11.40;99.90;;;;;;4892013;29;20048;-73
2021/12/08 13:07:19;;;;;;;6.82;3.90;;;11.80;99.90;;;;;;4869917;29;20117;-73
2021/12/08 13:09:53;;;;;;;6.47;4.05;;;11.90;99.90;;;;;;4874603;29;20048;-73
2021/12/08 13:12:27;;;;;;;6.07;3.60;;;12.20;99.90;;;;;;4872198;29;20602;-72
2021/12/08 13:15:17;;;;;;;5.18;3.80;;;12.30;99.90;;;;;;4875525;29;20048;-73
2021/12/08 13:18:06;;;;;;;5.05;3.40;;;12.20;99.90;;;;;;4870653;29;20119;-73
2021/12/08 13:20:42;;;;;;;5.35;3.20;;;12.00;99.90;;;;;;4873448;29;20057;-73
2021/12/08 13:23:10;;;;;;;7.15;3.80;;;12.10;99.90;;;;;;4871639;29;20185;-73
2021/12/08 13:28:34;;;;;;;6.25;3.70;;;11.70;99.90;;;;;;4871768;29;20056;-73
2021/12/08 13:31:12;;;;;;;3.50;3.20;;;11.40;99.90;;;;;;4892007;29;20037;-73
2021/12/08 13:34:02;;;;;;;7.47;3.72;;;10.90;99.90;;;;;;4871141;29;20064;-73
2021/12/08 13:36:43;;;;;;;5.25;3.47;;;11.00;99.90;;;;;;4889092;29;20753;-73
2021/12/08 13:39:14;;;;;;;7.55;3.92;;;11.10;99.90;;;;;;4887922;29;20084;-73
2021/12/08 13:41:51;;;;;;;7.88;3.65;;;10.80;99.90;;;;;;4873164;29;20052;-73
2021/12/08 13:44:22;;;;;;;8.63;4.05;;;10.40;99.90;;;;;;4869535;29;20068;-73
2021/12/08 13:46:59;;;;;;;5.32;3.90;;;10.50;99.90;;;;;;4867351;29;20128;-73
2021/12/08 13:49:34;;;;;;;5.40;4.57;;;10.20;99.90;;;;;;4886520;29;20412;-73
2021/12/08 13:52:02;;;;;;;8.27;4.45;;;9.90;99.90;;;;;;4874154;29;20079;-73
2021/12/08 13:54:38;;;;;;;6.20;4.43;;;9.90;99.90;;;;;;4870420;29;20492;-73
2021/12/08 13:57:35;;;;;;;6.15;4.78;;;9.80;99.90;;;;;;4874119;29;20073;-73
2021/12/08 14:00:06;;;;;;;6.45;4.80;;;9.60;99.90;;;;;;4811058;29;20050;-73
2021/12/08 14:02:36;;;;;;;6.63;4.65;;;9.30;99.90;;;;;;4874032;29;20052;-73
2021/12/08 14:05:08;;;;;;;8.25;4.95;;;9.00;99.90;;;;;;4874410;29;20056;-72
2021/12/08 14:07:35;;;;;;;7.70;5.18;;;8.70;99.90;;;;;;4874249;29;20061;-73
2021/12/08 14:10:06;;;;;;;7.68;4.88;;;8.50;99.90;;;;;;4876126;29;20045;-72
2021/12/08 14:12:56;;;;;;;6.65;5.32;;;8.20;99.90;;;;;;4875942;29;20096;-73
2021/12/08 14:15:32;;;;;;;7.20;5.13;;;8.00;99.90;;;;;;4875465;29;20049;-73
2021/12/08 14:18:18;;;;;;;5.38;4.88;;;8.10;99.90;;;;;;4888501;29;20048;-73
2021/12/08 14:20:47;;;;;;;6.32;5.10;;;8.20;99.90;;;;;;4895776;29;20052;-73
2021/12/08 14:23:15;;;;;;;6.30;4.95;;;8.40;99.90;;;;;;4880183;29;20052;-73
2021/12/08 14:25:54;;;;;;;8.15;4.90;;;8.50;99.90;;;;;;4895181;29;20080;-73
2021/12/08 14:28:40;;;;;;;5.80;4.47;;;8.70;99.90;;;;;;4894227;29;20045;-72
2021/12/08 14:31:23;;;;;;;7.25;5.00;;;8.80;99.90;;;;;;4886198;29;20163;-73
2021/12/08 14:33:51;;;;;;;7.72;5.15;;;8.60;99.90;;;;;;4888052;29;20093;-73
2021/12/08 14:36:17;;;;;;;5.95;5.35;;;8.30;99.90;;;;;;4876339;29;20159;-73
2021/12/08 14:38:52;;;;;;;5.95;4.93;;;8.00;99.90;;;;;;4891973;29;20044;-73
2021/12/08 14:41:24;;;;;;;6.82;5.03;;;7.80;99.90;;;;;;4874212;29;20045;-74
2021/12/08 14:43:53;;;;;;;7.20;5.13;;;7.50;99.90;;;;;;4870688;29;20409;-73
2021/12/08 14:46:21;;;;;;;6.75;4.88;;;7.40;99.90;;;;;;4871912;29;20489;-73
2021/12/08 14:49:01;;;;;;;6.40;4.85;;;7.30;99.90;;;;;;4870716;29;20127;-73
2021/12/08 14:51:28;;;;;;;5.97;4.90;;;7.10;99.90;;;;;;4872128;29;20118;-73
2021/12/08 14:54:07;;;;;;;9.68;4.80;;;7.00;99.90;;;;;;4873966;29;20071;-73
2021/12/08 14:56:34;;;;;;;6.78;4.43;;;6.90;99.90;;;;;;4878540;29;20212;-73
2021/12/08 14:59:00;;;;;;;6.68;4.90;;;6.90;99.90;;;;;;4870243;29;20064;-73
2021/12/08 15:01:25;;;;;;;9.60;5.07;;;6.90;99.90;;;;;;4874167;29;20060;-74
2021/12/08 15:03:52;;;;;;;7.93;5.00;;;6.90;99.90;;;;;;4866840;29;20045;-73
2021/12/08 15:06:21;;;;;;;9.45;4.60;;;6.90;99.90;;;;;;4876562;29;20431;-73
2021/12/08 15:08:47;;;;;;;8.27;4.97;;;6.90;99.90;;;;;;4876483;29;20382;-73
2021/12/08 15:11:22;;;;;;;7.80;4.65;;;6.90;99.90;;;;;;4869394;29;20088;-73
2021/12/08 15:13:49;;;;;;;5.10;4.25;;;6.80;99.90;;;;;;4885974;29;20464;-73
2021/12/08 15:16:18;;;;;;;6.38;4.60;;;6.80;99.90;;;;;;4866904;29;20056;-73
2021/12/08 15:18:55;;;;;;;7.88;4.30;;;6.80;99.90;;;;;;4869957;29;20045;-73